Time;durP1;ratioP1;P1;durP2;ratioP2;P2;SDS_P1;SDS_P2;PMS_P1;PMS_P2;Temp;Humidity;BMP_temperature;BMP_pressure;BME280_temperature;BME280_humidity;BME280_pressure;Samples;Min_cycle;Max_cycle;Signal;HPM_P1;HPM_P2
2022/11/15 00:00:56;;;;;;;8.77;8.02;;;;;;;15.55;84.13;100181.28;5038270;28;20043;-72
2022/11/15 00:03:27;;;;;;;9.98;9.07;;;;;;;15.56;84.46;100180.16;5041757;28;20057;-72
2022/11/15 00:05:54;;;;;;;10.45;9.55;;;;;;;15.55;84.66;100168.03;5040856;28;20083;-71
2022/11/15 00:08:21;;;;;;;9.90;8.50;;;;;;;15.56;84.14;100161.28;5045031;28;20051;-72
2022/11/15 00:11:02;;;;;;;8.95;8.10;;;;;;;15.52;84.52;100160.25;5032983;28;20054;-70
2022/11/15 00:13:32;;;;;;;9.30;8.27;;;;;;;15.61;84.63;100160.28;5038806;28;20075;-70
2022/11/15 00:16:01;;;;;;;8.23;7.72;;;;;;;15.64;84.36;100151.19;5039244;28;20132;-71
2022/11/15 00:18:28;;;;;;;13.68;9.68;;;;;;;15.68;84.67;100157.88;5037346;28;20515;-70
2022/11/15 00:20:56;;;;;;;9.18;8.48;;;;;;;15.73;84.26;100135.22;5036552;28;20053;-71
2022/11/15 00:23:23;;;;;;;10.57;8.45;;;;;;;15.68;84.87;100140.16;5041628;28;20057;-71
2022/11/15 00:25:59;;;;;;;10.10;9.02;;;;;;;15.64;84.27;100134.31;5041802;28;20514;-72
2022/11/15 00:28:26;;;;;;;9.25;8.57;;;;;;;15.79;84.39;100133.88;5037313;28;20052;-72
2022/11/15 00:30:53;;;;;;;8.65;7.80;;;;;;;15.74;84.46;100145.31;5046146;28;20053;-71
2022/11/15 00:33:20;;;;;;;10.60;9.70;;;;;;;15.68;85.13;100146.59;5035371;28;20097;-70
2022/11/15 00:35:46;;;;;;;8.65;8.00;;;;;;;15.55;85.27;100136.25;5041082;28;20044;-70
2022/11/15 00:38:14;;;;;;;8.98;8.23;;;;;;;15.55;85.43;100133.44;5049733;28;20053;-70
2022/11/15 00:40:41;;;;;;;10.80;9.73;;;;;;;15.58;85.59;100124.34;5037014;28;20042;-68
2022/11/15 00:43:08;;;;;;;9.15;8.32;;;;;;;15.51;86.01;100127.63;5039910;28;20415;-67
2022/11/15 00:45:35;;;;;;;9.43;8.50;;;;;;;15.58;85.56;100119.53;5031771;28;20046;-70
2022/11/15 00:48:01;;;;;;;9.52;8.63;;;;;;;15.58;86.15;100135.59;5039598;28;20040;-67
2022/11/15 00:50:28;;;;;;;9.65;8.85;;;;;;;15.59;85.78;100115.59;5039420;28;20057;-69
2022/11/15 00:52:55;;;;;;;9.02;8.23;;;;;;;15.62;86.14;100126.19;5035106;28;20104;-69
2022/11/15 00:55:22;;;;;;;10.13;9.20;;;;;;;15.61;85.69;100095.56;5032030;28;20554;-69
2022/11/15 00:57:49;;;;;;;14.77;9.18;;;;;;;15.63;85.82;100098.88;5026997;28;20049;-71
2022/11/15 01:00:16;;;;;;;11.90;8.05;;;;;;;15.48;85.96;100051.47;5039960;28;20045;-71
2022/11/15 01:02:44;;;;;;;10.25;9.05;;;;;;;15.70;85.90;100098.44;5046237;28;20044;-71
2022/11/15 01:05:11;;;;;;;9.50;8.68;;;;;;;15.74;85.72;100094.63;5034561;28;20041;-71
2022/11/15 01:07:37;;;;;;;10.35;9.40;;;;;;;15.66;85.24;100081.38;5046459;28;20053;-70
2022/11/15 01:10:05;;;;;;;10.20;9.43;;;;;;;15.67;85.83;100087.84;5037778;28;20049;-70
2022/11/15 01:12:32;;;;;;;9.73;8.90;;;;;;;15.65;85.47;100071.22;5047005;28;20053;-69
2022/11/15 01:14:59;;;;;;;9.98;9.00;;;;;;;15.64;85.60;100073.22;5043937;28;20044;-69
2022/11/15 01:17:25;;;;;;;9.82;9.13;;;;;;;15.63;85.79;100054.66;5044849;28;20056;-69
2022/11/15 01:19:52;;;;;;;9.57;8.77;;;;;;;15.65;85.55;100077.69;5024905;28;20053;-68
2022/11/15 01:22:21;;;;;;;9.85;9.07;;;;;;;15.67;85.68;100066.13;5043524;28;20056;-68
2022/11/15 01:24:49;;;;;;;10.27;9.02;;;;;;;15.71;85.36;100060.69;5051112;28;20737;-70
2022/11/15 01:27:17;;;;;;;8.90;8.30;;;;;;;15.69;85.70;100051.72;5053580;28;20140;-70
2022/11/15 01:29:43;;;;;;;12.55;9.20;;;;;;;15.79;85.38;100057.03;5049553;28;20056;-70
2022/11/15 01:32:10;;;;;;;10.02;9.07;;;;;;;15.76;85.28;100040.81;5044973;28;20053;-71
2022/11/15 01:34:37;;;;;;;9.73;9.05;;;;;;;15.82;85.66;100050.75;5042399;28;20057;-71
2022/11/15 01:37:04;;;;;;;10.00;9.27;;;;;;;15.81;85.31;100037.84;5037308;28;20057;-68
2022/11/15 01:39:30;;;;;;;8.60;8.00;;;;;;;15.95;85.49;100035.72;5043862;28;20045;-69
2022/11/15 01:41:57;;;;;;;13.75;8.27;;;;;;;15.87;85.27;100030.91;5037347;28;20518;-71
2022/11/15 01:44:30;;;;;;;9.52;8.20;;;;;;;15.90;85.26;100029.41;5035492;28;20045;-70
2022/11/15 01:46:59;;;;;;;10.05;9.30;;;;;;;15.94;85.00;100024.78;5052781;28;20048;-74
2022/11/15 01:49:29;;;;;;;9.38;8.68;;;;;;;15.93;85.37;100023.13;5042497;28;20048;-72
2022/11/15 01:51:58;;;;;;;8.82;8.07;;;;;;;15.95;85.22;100020.81;5047184;28;20384;-71
2022/11/15 01:54:25;;;;;;;8.95;8.05;;;;;;;15.93;84.81;100020.31;5045071;28;20057;-71
2022/11/15 01:57:04;;;;;;;13.15;11.82;;;;;;;15.92;84.49;100015.84;5047990;28;20068;-71
2022/11/15 01:59:31;;;;;;;10.32;8.32;;;;;;;15.89;84.41;100006.06;5048035;28;20053;-70
2022/11/15 02:01:58;;;;;;;9.82;8.75;;;;;;;15.88;84.52;100012.84;5036681;28;20507;-71
2022/11/15 02:04:28;;;;;;;11.85;8.98;;;;;;;15.88;84.61;100021.31;5040136;28;20049;-70
2022/11/15 02:06:55;;;;;;;8.45;7.95;;;;;;;15.84;84.29;100004.25;5044826;28;20365;-71
2022/11/15 02:09:23;;;;;;;13.13;9.80;;;;;;;15.91;83.98;100003.75;5047557;28;20049;-71
2022/11/15 02:11:51;;;;;;;12.80;10.27;;;;;;;15.83;83.89;99982.88;5043123;28;20338;-72
2022/11/15 02:14:19;;;;;;;9.32;8.60;;;;;;;15.76;83.58;99957.22;5034980;28;20508;-72
2022/11/15 02:17:31;;;;;;;9.45;8.68;;;;;;;15.90;83.58;99985.22;5036968;28;20045;-71
2022/11/15 02:20:22;;;;;;;11.27;10.27;;;;;;;15.87;83.43;99986.69;5030208;28;20392;-72
2022/11/15 02:23:04;;;;;;;10.20;9.45;;;;;;;15.92;83.59;99980.06;5038484;28;20442;-72
2022/11/15 02:25:49;;;;;;;12.13;10.40;;;;;;;15.78;83.38;99942.78;5037297;28;20558;-71
2022/11/15 02:28:25;;;;;;;9.20;8.50;;;;;;;15.90;83.98;99973.09;5039784;28;20053;-70
2022/11/15 02:31:15;;;;;;;10.10;9.30;;;;;;;15.93;83.89;99970.47;5039057;28;20053;-69
2022/11/15 02:33:49;;;;;;;11.40;8.43;;;;;;;15.86;83.53;99956.88;5046000;28;20061;-71
2022/11/15 02:36:22;;;;;;;8.98;8.23;;;;;;;15.84;83.64;99959.19;5038754;28;20049;-70
2022/11/15 02:39:03;;;;;;;8.95;8.38;;;;;;;15.96;83.12;99966.13;5042393;28;20213;-70
2022/11/15 02:41:44;;;;;;;10.93;9.93;;;;;;;15.97;83.18;99973.44;5052982;28;20064;-71
2022/11/15 02:44:14;;;;;;;8.60;8.15;;;;;;;16.03;82.78;99949.56;5049254;28;20047;-71
2022/11/15 02:49:35;;;;;;;7.95;7.35;;;;;;;15.96;83.05;99971.78;5039154;28;20053;-70
2022/11/15 02:52:02;;;;;;;8.73;7.93;;;;;;;15.99;82.84;99982.38;5043111;28;20041;-71
2022/11/15 02:54:31;;;;;;;9.98;9.13;;;;;;;15.94;82.71;99937.50;5052951;28;20050;-71
2022/11/15 02:57:06;;;;;;;10.63;8.50;;;;;;;15.94;82.97;99934.69;5041835;28;20064;-70
2022/11/15 02:59:59;;;;;;;8.52;7.97;;;;;;;15.94;83.04;99931.88;5043674;28;20052;-69
2022/11/15 03:03:01;;;;;;;8.98;8.18;;;;;;;15.95;82.94;99930.69;5043358;28;20522;-69
2022/11/15 03:05:40;;;;;;;10.30;8.15;;;;;;;15.81;83.35;99913.97;5040415;28;20051;-68
2022/11/15 03:08:19;;;;;;;9.48;8.52;;;;;;;15.64;84.12;99900.69;5033218;28;20052;-69
2022/11/15 03:11:09;;;;;;;8.52;8.02;;;;;;;15.65;84.48;99910.78;5043044;28;20049;-70
2022/11/15 03:13:51;;;;;;;10.60;8.98;;;;;;;15.68;84.85;99914.97;5039391;28;20076;-70
2022/11/15 03:16:20;;;;;;;9.30;8.60;;;;;;;15.60;85.41;99899.69;5049659;28;20531;-69
2022/11/15 03:18:58;;;;;;;8.85;8.15;;;;;;;15.57;85.14;99875.03;5042450;28;20044;-69
2022/11/15 03:21:27;;;;;;;11.60;8.88;;;;;;;15.68;85.35;99886.81;5036462;28;20053;-70
2022/11/15 03:23:59;;;;;;;9.05;8.25;;;;;;;15.40;84.94;99845.72;5051981;28;20056;-69
2022/11/15 03:26:28;;;;;;;9.02;8.43;;;;;;;15.67;85.13;99880.38;5041374;28;20048;-70
2022/11/15 03:29:09;;;;;;;9.35;8.32;;;;;;;15.73;85.32;99881.84;5049969;28;20059;-70
2022/11/15 03:31:47;;;;;;;11.02;9.25;;;;;;;15.70;85.68;99865.63;5043321;28;20048;-69
2022/11/15 03:34:28;;;;;;;9.45;8.55;;;;;;;15.76;85.45;99861.50;5042873;28;20053;-70
2022/11/15 03:36:56;;;;;;;9.48;8.52;;;;;;;15.73;85.26;99850.91;5043243;28;20407;-70
2022/11/15 03:39:24;;;;;;;8.88;8.25;;;;;;;15.72;85.49;99843.59;5035940;28;20056;-70
2022/11/15 03:42:04;;;;;;;9.65;8.70;;;;;;;15.64;86.33;99821.88;5034506;28;20037;-70
2022/11/15 03:44:58;;;;;;;11.80;10.57;;;;;;;15.38;87.57;99830.31;5038934;28;20421;-71
2022/11/15 03:47:49;;;;;;;12.20;11.50;;;;;;;15.16;87.98;99837.75;5044081;28;20053;-71
2022/11/15 03:50:19;;;;;;;13.45;12.57;;;;;;;15.13;89.33;99843.22;5040237;28;20049;-67
2022/11/15 03:52:48;;;;;;;16.70;15.40;;;;;;;15.07;90.10;99838.91;5039700;28;20057;-67
2022/11/15 03:55:19;;;;;;;16.35;15.15;;;;;;;14.90;90.05;99834.88;5040886;28;20050;-67
2022/11/15 03:57:51;;;;;;;16.15;14.70;;;;;;;14.99;90.67;99837.72;5036834;28;20063;-68
2022/11/15 04:00:19;;;;;;;14.82;14.07;;;;;;;15.05;91.38;99855.28;5032558;28;20049;-68
2022/11/15 04:02:45;;;;;;;14.70;13.70;;;;;;;15.01;91.41;99841.06;5035330;28;20076;-67
2022/11/15 04:05:12;;;;;;;13.98;13.15;;;;;;;14.96;92.09;99838.38;5037055;28;20052;-66
2022/11/15 04:07:39;;;;;;;14.95;13.88;;;;;;;14.87;92.10;99786.91;5050657;28;20049;-66
2022/11/15 04:10:06;;;;;;;14.82;13.73;;;;;;;15.01;92.02;99778.34;5036747;28;20053;-68
2022/11/15 04:12:36;;;;;;;14.80;13.82;;;;;;;15.01;92.81;99807.31;5032652;28;20045;-67
2022/11/15 04:15:13;;;;;;;15.88;14.98;;;;;;;15.09;92.90;99785.97;5042060;28;20056;-67
2022/11/15 04:17:41;;;;;;;15.98;14.88;;;;;;;15.13;92.92;99795.41;5037630;28;20045;-68
2022/11/15 04:25:59;;;;;;;;;;;;;;;14.80;94.28;99779.00;5034895;28;20409;-69
2022/11/15 04:28:26;;;;;;;15.27;14.30;;;;;;;14.90;94.17;99775.03;5037086;28;19924;-68
2022/11/15 04:30:52;;;;;;;15.32;14.18;;;;;;;14.88;94.59;99786.63;5035501;28;20304;-68
2022/11/15 04:33:20;;;;;;;15.45;14.50;;;;;;;14.83;93.98;99778.31;5032620;28;20057;-70
2022/11/15 04:37:11;;;;;;;15.25;14.45;;;;;;;14.83;94.26;99799.97;5035867;28;20076;-69
2022/11/15 04:38:34;;;;;;;17.13;15.80;;;;;;;14.81;94.54;99777.00;5031984;28;20057;-68
2022/11/15 04:41:01;;;;;;;16.50;15.50;;;;;;;14.79;94.17;99779.31;5043655;28;20056;-68
2022/11/15 04:43:28;;;;;;;17.50;16.50;;;;;;;14.74;94.53;99729.72;5042608;28;20423;-70
2022/11/15 04:45:55;;;;;;;17.15;16.33;;;;;;;14.78;95.00;99744.75;5037265;28;20052;-68
2022/11/15 04:48:22;;;;;;;17.92;16.92;;;;;;;14.82;95.17;99740.13;5041826;28;20048;-70
2022/11/15 04:50:49;;;;;;;17.48;16.38;;;;;;;14.83;95.49;99750.22;5038894;28;20508;-69
2022/11/15 04:53:15;;;;;;;16.38;15.50;;;;;;;14.82;95.43;99765.44;5040848;28;20048;-73
2022/11/15 04:55:46;;;;;;;16.02;15.23;;;;;;;14.91;95.52;99743.78;5036131;28;20052;-69
2022/11/15 04:58:13;;;;;;;17.38;16.20;;;;;;;14.93;95.50;99761.13;5043863;28;20046;-68
2022/11/15 05:00:40;;;;;;;16.83;15.88;;;;;;;14.89;95.62;99726.41;5040517;28;20049;-66
2022/11/15 05:05:54;;;;;;;17.42;16.50;;;;;;;15.01;95.73;99751.06;5060917;28;20123;-67
2022/11/15 05:08:21;;;;;;;17.40;16.05;;;;;;;15.02;96.05;99749.09;5054068;28;20060;-65
2022/11/15 05:10:47;;;;;;;17.02;16.13;;;;;;;15.02;96.08;99729.41;5057624;28;20092;-66
2022/11/15 05:13:14;;;;;;;16.65;15.70;;;;;;;15.02;95.94;99746.28;5042446;28;20054;-66
2022/11/15 05:15:41;;;;;;;17.95;16.55;;;;;;;14.93;96.13;99721.78;5043013;28;20064;-65
2022/11/15 05:18:08;;;;;;;16.27;15.27;;;;;;;15.07;95.93;99743.28;5039493;28;20045;-65
2022/11/15 05:20:35;;;;;;;16.48;15.50;;;;;;;15.11;95.79;99747.09;5040914;28;20053;-66
2022/11/15 05:23:02;;;;;;;17.05;15.70;;;;;;;15.13;95.96;99750.41;5047833;28;20049;-65
2022/11/15 05:25:29;;;;;;;16.67;15.57;;;;;;;15.17;96.06;99755.03;5039954;28;20061;-65
2022/11/15 05:27:56;;;;;;;18.10;17.00;;;;;;;15.23;96.05;99752.88;5033193;28;20053;-65
2022/11/15 05:30:23;;;;;;;16.92;15.95;;;;;;;15.28;96.00;99749.94;5041846;28;20053;-66
2022/11/15 05:32:50;;;;;;;16.60;15.40;;;;;;;15.33;95.64;99744.13;5040950;28;20053;-66
2022/11/15 05:35:50;;;;;;;16.27;15.35;;;;;;;15.27;95.40;99725.75;5032244;28;20424;-66
2022/11/15 05:38:17;;;;;;;17.20;15.85;;;;;;;15.34;96.22;99726.06;5045333;28;20053;-66
2022/11/15 05:40:44;;;;;;;16.85;15.70;;;;;;;15.41;96.08;99736.81;5035045;28;20061;-65
2022/11/15 05:43:11;;;;;;;15.43;14.60;;;;;;;15.43;96.48;99714.81;5055864;28;20041;-65
2022/11/15 05:45:38;;;;;;;15.80;15.00;;;;;;;15.54;95.91;99729.34;5044754;28;20057;-65
2022/11/15 05:48:09;;;;;;;16.17;15.07;;;;;;;15.54;96.07;99710.47;5046606;28;20060;-66
2022/11/15 05:50:38;;;;;;;17.00;15.68;;;;;;;15.54;96.22;99716.09;5037192;28;20056;-69
2022/11/15 05:53:06;;;;;;;17.00;16.00;;;;;;;15.54;96.12;99712.47;5058035;28;20048;-69
2022/11/15 05:55:32;;;;;;;16.25;15.35;;;;;;;15.59;96.22;99721.59;5037374;28;20484;-71
2022/11/15 05:58:00;;;;;;;17.38;16.27;;;;;;;15.60;96.20;99711.13;5044741;28;20049;-67
2022/11/15 06:00:28;;;;;;;17.10;15.95;;;;;;;15.65;96.38;99733.47;5041912;28;20045;-66
2022/11/15 06:02:55;;;;;;;17.08;16.08;;;;;;;15.61;96.14;99724.03;5042928;28;20045;-69
2022/11/15 06:05:21;;;;;;;17.65;16.17;;;;;;;15.53;96.44;99716.47;5037844;28;20045;-67
2022/11/15 06:07:48;;;;;;;16.35;15.32;;;;;;;15.64;96.20;99734.63;5035507;28;20060;-70
2022/11/15 06:10:15;;;;;;;16.88;15.65;;;;;;;15.63;96.05;99738.63;5038686;28;20056;-70
2022/11/15 06:12:42;;;;;;;17.23;15.90;;;;;;;15.65;96.08;99736.28;5051038;28;20070;-71
2022/11/15 06:15:09;;;;;;;18.38;16.92;;;;;;;15.60;96.04;99722.41;5037675;28;20717;-73
2022/11/15 06:17:36;;;;;;;16.88;15.68;;;;;;;15.49;96.62;99721.09;5052249;28;20048;-74
2022/11/15 06:20:03;;;;;;;16.23;15.10;;;;;;;15.56;96.08;99715.78;5040012;28;20063;-73
2022/11/15 06:22:30;;;;;;;15.68;14.88;;;;;;;15.56;96.61;99710.16;5040016;28;20041;-72
2022/11/15 06:24:56;;;;;;;16.92;15.70;;;;;;;15.67;96.69;99728.38;5041599;28;20053;-71
2022/11/15 06:27:30;;;;;;;17.05;16.15;;;;;;;15.67;96.46;99719.09;5032604;28;20052;-70
2022/11/15 06:29:57;;;;;;;16.00;15.10;;;;;;;15.73;96.37;99709.31;5035318;28;20053;-75
2022/11/15 06:32:24;;;;;;;15.93;15.02;;;;;;;15.77;96.53;99716.75;5038310;28;20056;-74
2022/11/15 06:34:50;;;;;;;16.60;15.60;;;;;;;15.80;96.35;99710.47;5045673;28;22364;-75
2022/11/15 06:37:17;;;;;;;16.77;15.88;;;;;;;15.91;97.08;99693.19;5041049;28;20049;-74
2022/11/15 06:39:45;;;;;;;16.95;15.82;;;;;;;15.94;96.53;99681.25;5042345;28;20416;-73
2022/11/15 06:42:12;;;;;;;17.85;16.58;;;;;;;15.96;96.99;99687.38;5043621;28;20488;-69
2022/11/15 06:44:39;;;;;;;17.38;16.23;;;;;;;15.97;96.67;99691.84;5038325;28;20049;-71
2022/11/15 06:47:05;;;;;;;17.95;16.77;;;;;;;15.91;96.85;99670.66;5044068;28;20041;-67
2022/11/15 06:49:32;;;;;;;16.65;15.65;;;;;;;15.96;96.81;99685.38;5039197;28;20511;-73
2022/11/15 06:51:59;;;;;;;21.00;19.80;;;;;;;15.99;96.38;99683.88;5033433;28;20054;-71
2022/11/15 06:54:26;;;;;;;16.42;15.60;;;;;;;15.97;96.86;99683.41;5040697;28;20060;-70
2022/11/15 06:56:53;;;;;;;16.35;15.55;;;;;;;15.97;96.75;99703.13;5038891;28;20061;-71
2022/11/15 06:59:21;;;;;;;15.80;15.10;;;;;;;15.97;96.79;99692.69;5034491;28;20050;-66
2022/11/15 07:01:49;;;;;;;16.30;15.25;;;;;;;16.06;97.01;99684.16;5034720;28;20044;-65
2022/11/15 07:04:16;;;;;;;16.60;15.73;;;;;;;16.05;96.88;99685.34;5040368;28;20049;-65
2022/11/15 07:06:42;;;;;;;17.10;16.00;;;;;;;16.04;96.71;99678.88;5037441;28;20432;-66
2022/11/15 07:09:09;;;;;;;17.90;16.80;;;;;;;16.03;96.67;99680.06;5041737;28;20048;-65
2022/11/15 07:11:36;;;;;;;19.95;18.70;;;;;;;16.06;97.22;99682.19;5043684;28;20045;-66
2022/11/15 07:14:02;;;;;;;17.30;15.75;;;;;;;16.10;97.17;99693.59;5039473;28;20402;-66
2022/11/15 07:16:29;;;;;;;17.55;16.42;;;;;;;16.01;96.82;99685.19;5042964;28;20050;-66
2022/11/15 07:18:57;;;;;;;20.85;19.30;;;;;;;16.05;96.79;99677.72;5035149;28;20505;-66
2022/11/15 07:21:24;;;;;;;16.80;15.88;;;;;;;16.05;97.15;99685.34;5036554;28;20045;-67
2022/11/15 07:23:53;;;;;;;18.15;16.60;;;;;;;16.08;97.19;99705.22;5031817;28;20064;-66
2022/11/15 07:26:20;;;;;;;17.92;16.58;;;;;;;16.05;97.13;99686.16;5042144;28;20045;-66
2022/11/15 07:28:47;;;;;;;19.48;17.58;;;;;;;16.13;97.37;99715.44;5043173;28;20111;-66
2022/11/15 07:31:13;;;;;;;17.15;16.15;;;;;;;16.16;97.37;99708.31;5035151;28;20060;-66
2022/11/15 07:33:40;;;;;;;17.00;15.82;;;;;;;16.15;97.26;99701.88;5034899;28;20699;-69
2022/11/15 07:36:08;;;;;;;17.30;16.10;;;;;;;16.20;97.26;99706.47;5035260;28;20052;-65
2022/11/15 07:38:36;;;;;;;16.45;15.55;;;;;;;16.18;97.35;99715.28;5039029;28;20053;-65
2022/11/15 07:41:08;;;;;;;15.90;15.20;;;;;;;16.22;97.13;99721.88;5032452;28;20493;-65
2022/11/15 07:43:35;;;;;;;22.80;21.50;;;;;;;16.26;97.44;99720.03;5040316;28;20143;-65
2022/11/15 07:46:08;;;;;;;15.80;15.10;;;;;;;16.27;97.10;99721.69;5039131;28;20048;-65
2022/11/15 07:48:40;;;;;;;20.23;18.67;;;;;;;16.29;97.15;99715.72;5040151;28;20053;-65
2022/11/15 07:51:14;;;;;;;16.00;15.10;;;;;;;16.32;97.02;99709.41;5034305;28;20150;-65
2022/11/15 07:53:42;;;;;;;27.08;25.60;;;;;;;16.28;97.55;99691.53;5047858;28;20063;-65
2022/11/15 07:56:09;;;;;;;16.65;15.70;;;;;;;16.27;97.27;99672.97;5035184;28;20045;-66
2022/11/15 07:58:36;;;;;;;16.58;15.70;;;;;;;16.30;97.70;99663.81;5039355;28;20408;-66
2022/11/15 08:01:07;;;;;;;18.20;17.02;;;;;;;16.32;97.18;99644.59;5030583;28;20064;-65
2022/11/15 08:03:34;;;;;;;17.85;16.95;;;;;;;16.39;97.65;99691.97;5039179;28;20127;-66
2022/11/15 08:06:01;;;;;;;17.17;16.20;;;;;;;16.37;97.54;99671.75;5038768;28;20055;-65
2022/11/15 08:08:28;;;;;;;17.40;16.30;;;;;;;16.40;97.38;99657.78;5037980;28;20523;-66
2022/11/15 08:10:58;;;;;;;16.60;15.65;;;;;;;16.41;97.63;99667.94;5038139;28;20049;-66
2022/11/15 08:13:25;;;;;;;18.10;16.42;;;;;;;16.45;97.68;99699.88;5034785;28;20056;-65
2022/11/15 08:15:51;;;;;;;24.55;23.33;;;;;;;16.49;97.39;99753.56;5048591;28;20530;-66
2022/11/15 08:18:23;;;;;;;18.65;17.38;;;;;;;16.51;97.64;99743.63;5049597;28;20041;-66
2022/11/15 08:20:49;;;;;;;19.67;18.42;;;;;;;16.44;96.80;99728.38;5045062;28;20049;-66
2022/11/15 08:23:16;;;;;;;22.30;21.20;;;;;;;16.25;96.61;99760.63;5038608;28;20431;-66
2022/11/15 08:25:43;;;;;;;18.08;16.92;;;;;;;16.08;96.37;99760.72;5035007;28;20055;-66
2022/11/15 08:28:10;;;;;;;18.05;17.13;;;;;;;15.95;96.34;99754.13;5045924;28;20045;-66
2022/11/15 08:30:41;;;;;;;18.33;17.02;;;;;;;15.97;96.56;99759.44;5034955;28;20050;-66
2022/11/15 08:33:13;;;;;;;20.02;18.50;;;;;;;15.88;96.15;99753.81;5032328;28;20045;-66
2022/11/15 08:35:44;;;;;;;21.00;18.85;;;;;;;15.82;96.52;99738.25;5041309;28;20398;-67
2022/11/15 08:38:11;;;;;;;20.23;18.15;;;;;;;15.90;96.43;99764.72;5042737;28;20041;-66
2022/11/15 08:40:37;;;;;;;19.83;17.88;;;;;;;15.86;96.62;99745.72;5038241;28;20045;-66
2022/11/15 08:43:04;;;;;;;25.60;19.08;;;;;;;15.99;96.68;99769.19;5038412;28;20140;-66
2022/11/15 08:45:33;;;;;;;23.13;19.00;;;;;;;16.01;96.55;99754.78;5040400;28;20046;-67
2022/11/15 08:48:03;;;;;;;20.70;18.50;;;;;;;16.04;96.57;99765.38;5041481;28;20399;-67
2022/11/15 08:50:30;;;;;;;22.38;19.70;;;;;;;16.09;96.27;99770.81;5038684;28;20163;-67
2022/11/15 08:52:57;;;;;;;27.40;19.45;;;;;;;16.11;96.55;99765.69;5038297;28;20048;-67
2022/11/15 08:55:24;;;;;;;21.52;18.60;;;;;;;16.06;96.50;99751.75;5036212;28;20140;-67
2022/11/15 08:57:51;;;;;;;27.08;19.30;;;;;;;16.15;96.46;99772.28;5036727;28;20495;-67
2022/11/15 09:00:19;;;;;;;21.83;17.65;;;;;;;16.17;96.45;99774.75;5033022;28;20076;-67
2022/11/15 09:02:46;;;;;;;28.50;22.00;;;;;;;16.17;96.07;99774.75;5044367;28;20052;-67
2022/11/15 09:05:15;;;;;;;30.23;17.65;;;;;;;16.08;96.01;99771.97;5042051;28;20064;-67
2022/11/15 09:07:42;;;;;;;22.00;16.52;;;;;;;16.15;95.91;99775.09;5032420;28;20056;-67
2022/11/15 09:10:09;;;;;;;28.38;22.55;;;;;;;16.18;95.84;99767.97;5041978;28;20041;-67
2022/11/15 09:12:36;;;;;;;27.13;21.27;;;;;;;16.08;95.37;99784.06;5041952;28;20365;-67
2022/11/15 09:15:04;;;;;;;17.45;16.00;;;;;;;16.15;95.66;99797.63;5034288;28;20069;-67
2022/11/15 09:17:31;;;;;;;20.30;16.63;;;;;;;16.09;95.18;99808.25;5031802;28;20068;-67
2022/11/15 09:19:58;;;;;;;23.92;16.10;;;;;;;16.06;94.79;99806.09;5038416;28;20060;-67
2022/11/15 09:22:26;;;;;;;19.95;15.32;;;;;;;15.98;94.78;99804.13;5041014;28;20060;-67
2022/11/15 09:24:53;;;;;;;24.38;16.15;;;;;;;15.92;94.56;99807.47;5045866;28;20283;-67
2022/11/15 09:27:19;;;;;;;15.75;14.52;;;;;;;15.77;93.92;99809.66;5053362;28;20500;-66
2022/11/15 09:29:46;;;;;;;18.92;17.60;;;;;;;15.65;93.75;99826.34;5049575;28;20503;-67
2022/11/15 09:32:13;;;;;;;20.13;18.45;;;;;;;15.53;93.69;99818.59;5043403;28;20083;-66
2022/11/15 09:34:40;;;;;;;16.27;14.32;;;;;;;15.41;93.43;99821.22;5049221;28;20060;-67
2022/11/15 09:37:06;;;;;;;18.15;13.07;;;;;;;15.36;93.58;99824.22;5043036;28;20436;-66
2022/11/15 09:39:33;;;;;;;21.00;15.20;;;;;;;15.41;94.06;99833.28;5039813;28;20056;-66
2022/11/15 09:42:25;;;;;;;23.33;13.80;;;;;;;15.38;93.34;99831.19;5049034;28;20052;-67
2022/11/15 09:45:07;;;;;;;21.52;18.85;;;;;;;15.34;93.26;99830.16;5044218;28;20416;-67
2022/11/15 09:47:37;;;;;;;20.05;13.75;;;;;;;15.39;93.61;99844.06;5039155;28;20056;-68
2022/11/15 09:50:26;;;;;;;24.33;14.90;;;;;;;15.39;93.71;99841.25;5052016;28;20041;-68
2022/11/15 09:52:54;;;;;;;21.13;15.18;;;;;;;15.37;94.04;99854.81;5043685;28;20480;-68
2022/11/15 09:55:33;;;;;;;18.15;15.10;;;;;;;15.34;93.73;99863.09;5042361;28;20057;-67
2022/11/15 09:58:09;;;;;;;19.08;17.35;;;;;;;15.28;93.24;99859.63;5066241;28;20049;-68
2022/11/15 10:00:51;;;;;;;22.08;14.30;;;;;;;15.21;93.43;99876.13;5035196;28;20045;-68
2022/11/15 10:03:30;;;;;;;15.32;14.00;;;;;;;15.17;93.52;99883.56;5046084;28;20049;-66
2022/11/15 10:06:02;;;;;;;20.73;14.10;;;;;;;15.15;93.66;99877.47;5049784;28;20046;-66
2022/11/15 10:08:47;;;;;;;17.98;14.57;;;;;;;15.09;93.22;99870.34;5042457;28;20053;-67
2022/11/15 10:11:19;;;;;;;15.98;13.55;;;;;;;15.07;93.13;99870.66;5042378;28;20049;-67
2022/11/15 10:14:20;;;;;;;20.58;14.13;;;;;;;15.04;93.47;99876.97;5045941;28;20404;-67
2022/11/15 10:17:23;;;;;;;30.15;15.65;;;;;;;14.97;93.01;99876.56;5035218;28;20064;-66
2022/11/15 10:20:03;;;;;;;20.05;15.23;;;;;;;15.19;94.23;99892.53;5041892;28;20049;-68
2022/11/15 10:22:55;;;;;;;20.52;14.55;;;;;;;15.59;94.36;99896.06;5040470;28;20479;-66
2022/11/15 10:25:24;;;;;;;15.07;13.15;;;;;;;15.82;94.14;99898.72;5037798;28;20507;-66
2022/11/15 10:28:16;;;;;;;19.05;17.23;;;;;;;15.76;93.81;99906.53;5047316;28;20045;-66
2022/11/15 10:30:46;;;;;;;21.77;13.45;;;;;;;15.79;93.22;99911.47;5032303;28;20056;-68
2022/11/15 10:33:25;;;;;;;;;;;;;;;15.54;93.70;99907.47;5048000;28;20539;-67
2022/11/15 10:36:13;;;;;;;16.10;14.38;;;;;;;15.62;92.94;99922.69;5046262;28;19921;-67
2022/11/15 10:38:49;;;;;;;15.35;13.63;;;;;;;15.62;92.70;99934.81;5043205;28;20487;-66
2022/11/15 10:41:29;;;;;;;16.50;13.10;;;;;;;15.58;92.26;99944.22;5043001;28;20591;-67
2022/11/15 10:44:20;;;;;;;18.42;16.38;;;;;;;15.48;92.37;99938.91;5041142;28;20049;-67
2022/11/15 10:46:59;;;;;;;18.70;14.10;;;;;;;15.36;92.39;99926.31;5044169;28;20048;-67
2022/11/15 10:49:28;;;;;;;18.80;13.55;;;;;;;15.53;92.44;99939.59;5041286;28;20495;-67
2022/11/15 10:52:19;;;;;;;15.05;13.50;;;;;;;15.55;92.67;99939.25;5048449;28;20060;-67
2022/11/15 10:54:48;;;;;;;17.23;12.40;;;;;;;15.62;92.71;99959.28;5047718;28;20053;-67
2022/11/15 10:57:22;;;;;;;21.63;12.98;;;;;;;15.60;92.53;99953.19;5035266;28;20180;-67
2022/11/15 11:00:03;;;;;;;15.20;13.70;;;;;;;15.46;92.38;99933.63;5033456;28;20057;-66
2022/11/15 11:02:52;;;;;;;17.42;14.98;;;;;;;15.61;92.09;99950.03;5049218;28;20049;-67
2022/11/15 11:05:29;;;;;;;15.98;14.07;;;;;;;15.53;92.53;99948.03;5052041;28;20057;-67
2022/11/15 11:08:03;;;;;;;15.32;13.00;;;;;;;15.47;92.47;99943.72;5051912;28;20041;-67
2022/11/15 11:10:30;;;;;;;21.27;13.27;;;;;;;15.52;93.05;99946.38;5040802;28;20049;-67
2022/11/15 11:13:26;;;;;;;15.18;12.45;;;;;;;15.55;92.43;99940.06;5040880;28;20075;-66
2022/11/15 11:16:14;;;;;;;17.98;13.05;;;;;;;15.59;92.62;99957.16;5047793;28;20510;-67
2022/11/15 11:18:49;;;;;;;17.35;12.95;;;;;;;15.41;92.60;99931.78;5039164;28;20397;-66
2022/11/15 11:21:33;;;;;;;14.18;12.90;;;;;;;15.50;92.21;99947.88;5040288;28;20053;-66
2022/11/15 11:24:25;;;;;;;20.60;14.52;;;;;;;15.48;92.66;99942.53;5043892;28;20040;-67
2022/11/15 11:26:55;;;;;;;17.20;13.82;;;;;;;15.52;92.77;99939.91;5043349;28;20426;-67
2022/11/15 11:29:41;;;;;;;24.38;14.50;;;;;;;15.59;93.09;99948.72;5041941;28;20136;-67
2022/11/15 11:32:34;;;;;;;19.55;14.35;;;;;;;15.59;92.99;99931.81;5047827;28;20049;-66
2022/11/15 11:35:22;;;;;;;17.85;16.45;;;;;;;15.87;94.24;99929.56;5047753;28;20045;-67
2022/11/15 11:37:51;;;;;;;15.48;13.88;;;;;;;16.18;94.70;99909.66;5039466;28;20045;-67
2022/11/15 11:40:27;;;;;;;16.95;15.88;;;;;;;16.67;95.56;99907.34;5047971;28;20053;-66
2022/11/15 11:43:15;;;;;;;24.17;13.02;;;;;;;17.34;95.87;99900.09;5040016;28;20052;-66
2022/11/15 11:46:01;;;;;;;15.05;13.50;;;;;;;17.50;94.69;99900.28;5046677;28;20059;-67
2022/11/15 11:48:39;;;;;;;16.15;12.23;;;;;;;17.48;94.46;99909.13;5040623;28;20072;-66
2022/11/15 11:51:22;;;;;;;13.27;11.82;;;;;;;17.15;93.44;99874.31;5046853;28;20492;-66